createdAt,value
2022-11-20T00:01:30.689Z,100986.41
2022-11-20T00:03:32.461Z,100983.91
2022-11-20T00:05:35.075Z,100989.91
2022-11-20T00:07:36.733Z,100983.69
2022-11-20T00:09:38.426Z,100991.69
2022-11-20T00:11:40.057Z,100984.94
2022-11-20T00:13:42.000Z,100992.59
2022-11-20T00:15:43.743Z,100985.81
2022-11-20T00:17:45.486Z,100995.16
2022-11-20T00:19:47.152Z,100989.94
2022-11-20T00:21:48.835Z,100981.66
2022-11-20T00:23:54.851Z,100974.59
2022-11-20T00:25:57.008Z,100974.25
2022-11-20T00:27:58.670Z,100972.00
2022-11-20T00:30:00.396Z,100969.53
2022-11-20T00:32:02.038Z,100973.72
2022-11-20T00:34:03.774Z,100969.53
2022-11-20T00:36:08.523Z,100968.03
2022-11-20T00:38:10.365Z,100959.38
2022-11-20T00:40:12.608Z,100958.44
2022-11-20T00:42:14.377Z,100952.31
2022-11-20T00:44:15.998Z,100949.78
2022-11-20T00:46:20.315Z,100943.69
2022-11-20T00:48:21.955Z,100939.28
2022-11-20T00:50:23.679Z,100933.19
2022-11-20T00:52:35.525Z,100937.09
2022-11-20T00:54:37.167Z,100937.53
2022-11-20T00:56:38.922Z,100937.34
2022-11-20T00:58:42.694Z,100937.34
2022-11-20T01:00:44.384Z,100937.47
2022-11-20T01:02:46.065Z,100932.31
2022-11-20T01:04:47.734Z,100931.47
2022-11-20T01:06:49.485Z,100936.38
2022-11-20T01:08:55.555Z,100931.09
2022-11-20T01:11:11.638Z,100920.19
2022-11-20T01:13:31.572Z,100921.00
2022-11-20T01:15:35.166Z,100925.53
2022-11-20T01:17:36.819Z,100910.06
2022-11-20T01:19:38.611Z,100914.06
2022-11-20T01:21:42.633Z,100906.56
2022-11-20T01:23:45.669Z,100911.72
2022-11-20T01:25:47.337Z,100909.78
2022-11-20T01:27:49.060Z,100916.69
2022-11-20T01:29:50.767Z,100909.78
2022-11-20T01:31:53.652Z,100907.50
2022-11-20T01:33:57.988Z,100907.41
2022-11-20T01:36:06.966Z,100894.47
2022-11-20T01:38:08.565Z,100890.44
2022-11-20T01:40:10.978Z,100889.53
2022-11-20T01:42:32.520Z,100886.34
2022-11-20T01:44:46.166Z,100882.56
2022-11-20T01:47:01.737Z,100880.72
2022-11-20T01:49:32.835Z,100880.63
2022-11-20T01:51:42.878Z,100870.78
2022-11-20T01:53:45.283Z,100864.13
2022-11-20T01:55:52.587Z,100859.72
2022-11-20T01:57:54.414Z,100862.13
2022-11-20T02:00:11.843Z,100850.50
2022-11-20T02:02:13.515Z,100844.56
2022-11-20T02:04:16.525Z,100846.44
2022-11-20T02:06:26.857Z,100847.94
2022-11-20T02:08:29.278Z,100843.56
2022-11-20T02:10:31.418Z,100839.75
2022-11-20T02:12:52.578Z,100830.38
2022-11-20T02:14:54.242Z,100829.38
2022-11-20T02:16:56.832Z,100826.91
2022-11-20T02:19:01.377Z,100829.38
2022-11-20T02:21:14.243Z,100826.03
2022-11-20T02:23:40.901Z,100814.94
2022-11-20T02:25:44.687Z,100815.16
2022-11-20T02:27:46.377Z,100809.94
2022-11-20T02:30:09.077Z,100806.56
2022-11-20T02:32:23.593Z,100804.81
2022-11-20T02:34:25.256Z,100799.47
2022-11-20T02:36:29.196Z,100798.97
2022-11-20T02:38:30.803Z,100787.94
2022-11-20T02:40:32.452Z,100786.13
2022-11-20T02:42:34.068Z,100783.72
2022-11-20T02:44:35.732Z,100780.22
2022-11-20T02:46:37.438Z,100773.59
2022-11-20T02:48:39.116Z,100776.75
2022-11-20T02:50:41.533Z,100771.16
2022-11-20T02:52:51.996Z,100765.16
2022-11-20T02:54:53.868Z,100766.91
2022-11-20T02:56:55.601Z,100756.69
2022-11-20T02:58:57.368Z,100760.03
2022-11-20T03:00:59.069Z,100766.13
2022-11-20T03:03:00.784Z,100765.53
2022-11-20T03:05:02.455Z,100758.59
2022-11-20T03:07:04.836Z,100752.59
2022-11-20T03:09:06.753Z,100754.22
2022-11-20T03:11:09.041Z,100752.56
2022-11-20T03:13:10.765Z,100751.00
2022-11-20T03:15:12.480Z,100748.25
2022-11-20T03:17:14.127Z,100738.81
2022-11-20T03:19:15.823Z,100743.97
2022-11-20T03:21:17.589Z,100739.84
2022-11-20T03:23:19.436Z,100743.13
2022-11-20T03:25:21.158Z,100739.34
2022-11-20T03:27:22.937Z,100728.41
2022-11-20T03:29:24.660Z,100731.09
2022-11-20T03:31:32.363Z,100731.13
2022-11-20T03:33:34.075Z,100729.34
2022-11-20T03:35:35.790Z,100724.31
2022-11-20T03:37:37.470Z,100728.47
2022-11-20T03:39:39.136Z,100724.09
2022-11-20T03:41:43.144Z,100716.50
2022-11-20T03:43:55.378Z,100713.06
2022-11-20T03:45:57.827Z,100729.34
2022-11-20T03:47:59.521Z,100719.16
2022-11-20T03:50:01.174Z,100724.00
2022-11-20T03:52:02.881Z,100711.75
2022-11-20T03:54:07.648Z,100702.34
2022-11-20T03:56:10.558Z,100703.91
2022-11-20T03:58:12.325Z,100694.44
2022-11-20T04:00:14.655Z,100695.25
2022-11-20T04:02:16.339Z,100693.63
2022-11-20T04:04:18.240Z,100683.31
2022-11-20T04:06:28.894Z,100683.03
2022-11-20T04:08:31.635Z,100681.97
2022-11-20T04:10:33.283Z,100676.16
2022-11-20T04:12:35.051Z,100667.63
2022-11-20T04:14:37.162Z,100672.78
2022-11-20T04:16:39.182Z,100674.88
2022-11-20T04:18:40.822Z,100674.75
2022-11-20T04:20:42.539Z,100677.31
2022-11-20T04:22:54.079Z,100673.88
2022-11-20T04:24:55.754Z,100670.22
2022-11-20T04:26:57.477Z,100665.91
2022-11-20T04:28:59.878Z,100665.13
2022-11-20T04:31:06.900Z,100661.81
2022-11-20T04:33:08.828Z,100659.34
2022-11-20T04:35:10.493Z,100649.09
2022-11-20T04:37:12.131Z,100644.59
2022-11-20T04:39:16.419Z,100639.44
2022-11-20T04:41:20.412Z,100643.69
2022-11-20T04:43:22.023Z,100642.59
2022-11-20T04:45:24.167Z,100650.03
2022-11-20T04:47:25.887Z,100643.16
2022-11-20T04:49:27.680Z,100638.03
2022-11-20T04:51:29.656Z,100641.47
2022-11-20T04:53:31.600Z,100640.59
2022-11-20T04:55:33.269Z,100633.97
2022-11-20T04:57:35.141Z,100626.66
2022-11-20T04:59:36.796Z,100633.81
2022-11-20T05:01:38.554Z,100626.94
2022-11-20T05:03:42.742Z,100620.03
2022-11-20T05:05:44.655Z,100610.59
2022-11-20T05:07:46.341Z,100608.03
2022-11-20T05:09:47.965Z,100601.84
2022-11-20T05:11:51.628Z,100592.78
2022-11-20T05:13:53.517Z,100592.97
2022-11-20T05:15:55.496Z,100591.03
2022-11-20T05:17:57.152Z,100589.47
2022-11-20T05:19:58.873Z,100578.16
2022-11-20T05:22:00.524Z,100575.56
2022-11-20T05:24:02.194Z,100571.56
2022-11-20T05:26:04.781Z,100583.47
2022-11-20T05:28:06.483Z,100572.59
2022-11-20T05:30:08.869Z,100569.19
2022-11-20T05:32:10.838Z,100560.66
2022-11-20T05:34:12.441Z,100558.91
2022-11-20T05:36:15.809Z,100558.13
2022-11-20T05:38:17.493Z,100564.28
2022-11-20T05:40:19.272Z,100556.81
2022-11-20T05:42:39.216Z,100556.81
2022-11-20T05:44:41.022Z,100558.25
2022-11-20T05:46:42.684Z,100557.34
2022-11-20T05:48:45.461Z,100556.66
2022-11-20T05:50:47.202Z,100550.75
2022-11-20T05:52:52.140Z,100539.81
2022-11-20T05:54:53.761Z,100544.78
2022-11-20T05:56:55.376Z,100543.81
2022-11-20T05:58:57.457Z,100536.81
2022-11-20T06:01:26.410Z,100536.94
2022-11-20T06:03:28.036Z,100532.63
2022-11-20T06:05:29.690Z,100522.88
2022-11-20T06:07:31.389Z,100521.41
2022-11-20T06:09:33.247Z,100520.63
2022-11-20T06:11:35.022Z,100518.94
2022-11-20T06:13:41.806Z,100516.13
2022-11-20T06:15:58.212Z,100513.88
2022-11-20T06:18:00.097Z,100509.38
2022-11-20T06:20:02.012Z,100500.78
2022-11-20T06:22:03.677Z,100492.25
2022-11-20T06:24:05.733Z,100492.41
2022-11-20T06:26:09.889Z,100482.06
2022-11-20T06:28:11.614Z,100478.56
2022-11-20T06:30:13.688Z,100472.31
2022-11-20T06:32:15.335Z,100476.56
2022-11-20T06:34:17.150Z,100471.47
2022-11-20T06:36:21.211Z,100469.72
2022-11-20T06:38:23.157Z,100470.66
2022-11-20T06:40:24.792Z,100465.72
2022-11-20T06:42:26.458Z,100473.69
2022-11-20T06:44:28.147Z,100473.69
2022-11-20T06:46:29.808Z,100469.38
2022-11-20T06:48:31.504Z,100469.56
2022-11-20T06:50:33.306Z,100470.44
2022-11-20T06:52:38.286Z,100472.19
2022-11-20T06:54:42.479Z,100470.63
2022-11-20T06:56:48.839Z,100455.34
2022-11-20T06:58:50.512Z,100467.47
2022-11-20T07:00:52.206Z,100467.66
2022-11-20T07:02:55.265Z,100479.72
2022-11-20T07:04:56.910Z,100488.41
2022-11-20T07:06:58.567Z,100497.97
2022-11-20T07:09:00.294Z,100502.34
2022-11-20T07:11:04.701Z,100489.59
2022-11-20T07:13:07.975Z,100469.81
2022-11-20T07:15:09.765Z,100458.34
2022-11-20T07:17:11.399Z,100459.13
2022-11-20T07:19:13.101Z,100450.47
2022-11-20T07:21:14.983Z,100454.13
2022-11-20T07:23:16.722Z,100459.34
2022-11-20T07:25:18.411Z,100459.38
2022-11-20T07:27:20.029Z,100456.81
2022-11-20T07:29:21.910Z,100453.50
2022-11-20T07:31:23.850Z,100467.22
2022-11-20T07:33:25.645Z,100462.13
2022-11-20T07:35:27.272Z,100461.31
2022-11-20T07:37:28.931Z,100469.97
2022-11-20T07:39:30.552Z,100468.31
2022-11-20T07:41:32.404Z,100466.53
2022-11-20T07:43:38.495Z,100462.19
2022-11-20T07:45:42.609Z,100456.19
2022-11-20T07:47:44.292Z,100455.31
2022-11-20T07:49:46.040Z,100460.38
2022-11-20T07:51:51.771Z,100451.84
2022-11-20T07:53:54.158Z,100454.34
2022-11-20T07:55:55.766Z,100454.44
2022-11-20T07:57:58.728Z,100465.56
2022-11-20T08:00:00.404Z,100466.44
2022-11-20T08:02:02.176Z,100463.91
2022-11-20T08:04:04.192Z,100466.47
2022-11-20T08:06:06.504Z,100467.38
2022-11-20T08:08:08.811Z,100475.16
2022-11-20T08:10:13.699Z,100476.88
2022-11-20T08:12:41.081Z,100475.28
2022-11-20T08:14:42.743Z,100477.06
2022-11-20T08:16:49.167Z,100480.47
2022-11-20T08:18:50.840Z,100488.28
2022-11-20T08:20:52.551Z,100495.97
2022-11-20T08:22:58.213Z,100498.63
2022-11-20T08:25:00.067Z,100502.84
2022-11-20T08:27:01.740Z,100502.03
2022-11-20T08:29:04.562Z,100510.69
2022-11-20T08:31:06.372Z,100521.78
2022-11-20T08:33:10.128Z,100520.91
2022-11-20T08:35:11.829Z,100521.66
2022-11-20T08:37:13.461Z,100519.13
2022-11-20T08:39:15.708Z,100522.63
2022-11-20T08:41:31.793Z,100514.91
2022-11-20T08:43:33.476Z,100516.50
2022-11-20T08:45:35.631Z,100522.41
2022-11-20T08:47:37.494Z,100521.53
2022-11-20T08:49:39.222Z,100526.78
2022-11-20T08:51:41.840Z,100522.47
2022-11-20T08:53:43.753Z,100539.53
2022-11-20T08:55:45.414Z,100532.75
2022-11-20T08:57:50.858Z,100527.56
2022-11-20T09:00:09.071Z,100540.56
2022-11-20T09:02:10.951Z,100538.75
2022-11-20T09:04:14.633Z,100538.81
2022-11-20T09:06:17.271Z,100537.97
2022-11-20T09:08:18.941Z,100536.06
2022-11-20T09:10:24.935Z,100539.28
2022-11-20T09:12:26.925Z,100538.63
2022-11-20T09:14:30.330Z,100547.00
2022-11-20T09:16:32.001Z,100541.97
2022-11-20T09:18:36.995Z,100536.97
2022-11-20T09:20:38.905Z,100538.75
2022-11-20T09:22:41.718Z,100536.22
2022-11-20T09:24:43.880Z,100523.50
2022-11-20T09:26:45.885Z,100524.41
2022-11-20T09:28:47.755Z,100531.97
2022-11-20T09:30:49.412Z,100547.50
2022-11-20T09:33:00.733Z,100559.38
2022-11-20T09:35:03.076Z,100548.28
2022-11-20T09:37:14.829Z,100561.06
2022-11-20T09:39:26.115Z,100557.69
2022-11-20T09:41:41.217Z,100567.88
2022-11-20T09:44:08.016Z,100557.78
2022-11-20T09:46:30.792Z,100556.16
2022-11-20T09:49:04.654Z,100561.09
2022-11-20T09:51:36.969Z,100566.47
2022-11-20T09:53:56.957Z,100565.63
2022-11-20T09:56:02.470Z,100566.53
2022-11-20T09:58:39.360Z,100559.72
2022-11-20T10:00:45.911Z,100540.06
2022-11-20T10:03:14.683Z,100535.75
2022-11-20T10:05:21.672Z,100531.38
2022-11-20T10:07:32.653Z,100530.59
2022-11-20T10:09:44.121Z,100541.84
2022-11-20T10:12:06.579Z,100537.69
2022-11-20T10:14:10.914Z,100538.50
2022-11-20T10:16:28.065Z,100547.13
2022-11-20T10:18:38.522Z,100544.72
2022-11-20T10:20:50.249Z,100541.13
2022-11-20T10:23:13.046Z,100531.09
2022-11-20T10:25:42.166Z,100530.38
2022-11-20T10:28:10.795Z,100532.22
2022-11-20T10:30:15.899Z,100524.56
2022-11-20T10:32:21.404Z,100526.38
2022-11-20T10:34:35.582Z,100527.31
2022-11-20T10:36:47.260Z,100522.22
2022-11-20T10:38:58.102Z,100523.97
2022-11-20T10:41:21.327Z,100532.63
2022-11-20T10:43:37.168Z,100532.59
2022-11-20T10:45:48.764Z,100538.53
2022-11-20T10:47:51.133Z,100536.00
2022-11-20T10:49:56.454Z,100531.84
2022-11-20T10:52:11.384Z,100521.53
2022-11-20T10:54:28.530Z,100526.75
2022-11-20T10:56:48.373Z,100528.56
2022-11-20T10:59:24.567Z,100528.72
2022-11-20T11:01:28.207Z,100535.38
2022-11-20T11:03:32.314Z,100533.75
2022-11-20T11:05:42.831Z,100528.59
2022-11-20T11:07:46.361Z,100536.44
2022-11-20T11:09:52.986Z,100539.06
2022-11-20T11:11:54.608Z,100543.34
2022-11-20T11:14:16.762Z,100531.19
2022-11-20T11:16:28.447Z,100533.91
2022-11-20T11:18:33.740Z,100537.41
2022-11-20T11:20:35.483Z,100533.19
2022-11-20T11:23:02.059Z,100534.09
2022-11-20T11:25:03.939Z,100531.59
2022-11-20T11:27:16.874Z,100533.34
2022-11-20T11:29:19.608Z,100536.94
2022-11-20T11:31:29.444Z,100531.03
2022-11-20T11:33:34.769Z,100525.03
2022-11-20T11:35:49.708Z,100527.78
2022-11-20T11:37:55.260Z,100533.81
2022-11-20T11:40:22.964Z,100517.56
2022-11-20T11:42:20.683Z,100522.84
2022-11-20T11:44:54.324Z,100515.19
2022-11-20T11:46:59.354Z,100505.84
2022-11-20T11:49:23.007Z,100506.81
2022-11-20T11:51:30.938Z,100504.34
2022-11-20T11:53:34.913Z,100500.97
2022-11-20T11:55:43.503Z,100485.56
2022-11-20T11:58:01.537Z,100489.88
2022-11-20T12:00:22.767Z,100493.38
2022-11-20T12:02:33.945Z,100495.16
2022-11-20T12:04:52.884Z,100499.53
2022-11-20T12:07:45.066Z,100489.19
2022-11-20T12:09:47.418Z,100493.59
2022-11-20T12:12:08.153Z,100497.13
2022-11-20T12:14:25.216Z,100498.84
2022-11-20T12:16:27.432Z,100496.34
2022-11-20T12:18:30.653Z,100497.25
2022-11-20T12:20:42.869Z,100489.47
2022-11-20T12:23:26.737Z,100493.88
2022-11-20T12:25:37.752Z,100500.03
2022-11-20T12:28:14.369Z,100514.59
2022-11-20T12:30:17.839Z,100513.56
2022-11-20T12:32:59.980Z,100501.66
2022-11-20T12:35:39.144Z,100512.94
2022-11-20T12:37:40.776Z,100521.63
2022-11-20T12:39:43.604Z,100506.03
2022-11-20T12:42:09.962Z,100514.69
2022-11-20T12:44:48.333Z,100525.94
2022-11-20T12:47:05.039Z,100526.72
2022-11-20T12:49:19.182Z,100526.78
2022-11-20T12:51:49.165Z,100514.69
2022-11-20T12:54:07.917Z,100524.25
2022-11-20T12:56:29.924Z,100513.91
2022-11-20T12:58:57.738Z,100513.91
2022-11-20T13:01:40.851Z,100518.31
2022-11-20T13:03:52.893Z,100514.03
2022-11-20T13:05:58.035Z,100517.44
2022-11-20T13:08:02.367Z,100507.13
2022-11-20T13:10:12.739Z,100514.06
2022-11-20T13:12:17.592Z,100518.38
2022-11-20T13:14:38.542Z,100517.47
2022-11-20T13:17:06.266Z,100527.00
2022-11-20T13:19:14.729Z,100526.13
2022-11-20T13:21:23.656Z,100534.78
2022-11-20T13:23:29.209Z,100543.38
2022-11-20T13:25:35.993Z,100540.75
2022-11-20T13:27:48.517Z,100538.19
2022-11-20T13:30:15.533Z,100533.00
2022-11-20T13:32:19.939Z,100539.03
2022-11-20T13:34:27.128Z,100539.84
2022-11-20T13:36:31.284Z,100543.28
2022-11-20T13:38:46.278Z,100544.13
2022-11-20T13:40:57.275Z,100554.41
2022-11-20T13:43:29.340Z,100548.38
2022-11-20T13:45:33.155Z,100548.38
2022-11-20T13:47:37.013Z,100539.72
2022-11-20T13:49:45.147Z,100543.16
2022-11-20T13:51:53.030Z,100549.06
2022-11-20T13:54:18.887Z,100534.41
2022-11-20T13:56:35.428Z,100538.69
2022-11-20T13:59:05.153Z,100528.28
2022-11-20T14:01:10.052Z,100516.16
2022-11-20T14:03:43.984Z,100495.50
2022-11-20T14:06:00.015Z,100498.91
2022-11-20T14:08:05.189Z,100499.78
2022-11-20T14:10:07.333Z,100500.63
2022-11-20T14:12:20.924Z,100499.72
2022-11-20T14:14:30.673Z,100499.69
2022-11-20T14:16:38.098Z,100501.41
2022-11-20T14:18:39.797Z,100491.94
2022-11-20T14:20:43.322Z,100491.88
2022-11-20T14:22:58.015Z,100494.41
2022-11-20T14:25:28.379Z,100488.34
2022-11-20T14:27:30.673Z,100483.25
2022-11-20T14:29:39.854Z,100488.41
2022-11-20T14:31:43.191Z,100496.97
2022-11-20T14:33:44.853Z,100493.53
2022-11-20T14:35:51.959Z,100501.28
2022-11-20T14:37:54.917Z,100518.47
2022-11-20T14:39:59.839Z,100508.16
2022-11-20T14:42:01.756Z,100517.59
2022-11-20T14:44:05.278Z,100526.09
2022-11-20T14:46:10.933Z,100527.81
2022-11-20T14:48:12.907Z,100530.41
2022-11-20T14:50:25.309Z,100527.75
2022-11-20T14:52:28.588Z,100526.91
2022-11-20T14:54:31.772Z,100533.00
2022-11-20T14:56:33.451Z,100519.16
2022-11-20T14:58:35.423Z,100526.91
2022-11-20T15:00:38.166Z,100536.28
2022-11-20T15:02:52.619Z,100532.72
2022-11-20T15:05:04.325Z,100512.94
2022-11-20T15:07:06.113Z,100519.81
2022-11-20T15:09:16.033Z,100524.84
2022-11-20T15:11:21.751Z,100520.41
2022-11-20T15:13:40.073Z,100515.09
2022-11-20T15:15:46.678Z,100520.13
2022-11-20T15:17:48.530Z,100515.75
2022-11-20T15:19:50.434Z,100514.97
2022-11-20T15:21:52.528Z,100509.00
2022-11-20T15:23:54.765Z,100508.13
2022-11-20T15:25:57.020Z,100506.38
2022-11-20T15:27:58.672Z,100505.56
2022-11-20T15:30:00.428Z,100496.91
2022-11-20T15:32:02.219Z,100493.47
2022-11-20T15:34:04.033Z,100497.72
2022-11-20T15:36:05.900Z,100501.13
2022-11-20T15:38:07.721Z,100500.28
2022-11-20T15:40:10.235Z,100507.19
2022-11-20T15:42:11.888Z,100518.41
2022-11-20T15:44:13.850Z,100509.84
2022-11-20T15:46:18.271Z,100504.59
2022-11-20T15:48:28.527Z,100507.19
2022-11-20T15:50:40.217Z,100510.69
2022-11-20T15:52:51.757Z,100508.13
2022-11-20T15:54:53.500Z,100508.13
2022-11-20T15:56:55.554Z,100509.84
2022-11-20T15:58:57.230Z,100502.97
2022-11-20T16:00:58.992Z,100510.66
2022-11-20T16:03:00.742Z,100513.13
2022-11-20T16:05:02.389Z,100524.34
2022-11-20T16:07:04.187Z,100517.56
2022-11-20T16:09:05.951Z,100509.81
2022-11-20T16:11:07.628Z,100513.84
2022-11-20T16:13:36.438Z,100523.19
2022-11-20T16:15:47.486Z,100513.69
2022-11-20T16:17:49.244Z,100518.84
2022-11-20T16:19:50.927Z,100518.03
2022-11-20T16:21:52.628Z,100515.19
2022-11-20T16:23:54.889Z,100519.56
2022-11-20T16:25:56.615Z,100516.94
2022-11-20T16:27:58.339Z,100523.75
2022-11-20T16:30:00.052Z,100522.88
2022-11-20T16:32:01.712Z,100517.78
2022-11-20T16:34:11.812Z,100527.22
2022-11-20T16:36:16.123Z,100525.34
2022-11-20T16:38:17.846Z,100524.59
2022-11-20T16:40:19.517Z,100522.75
2022-11-20T16:42:21.262Z,100521.03
2022-11-20T16:44:23.299Z,100517.59
2022-11-20T16:46:27.379Z,100526.09
2022-11-20T16:48:29.027Z,100530.44
2022-11-20T16:50:30.802Z,100539.47
2022-11-20T16:52:32.676Z,100547.31
2022-11-20T16:54:34.393Z,100548.19
2022-11-20T16:56:36.827Z,100535.34
2022-11-20T16:58:38.499Z,100539.72
2022-11-20T17:00:41.039Z,100537.78
2022-11-20T17:02:42.678Z,100545.66
2022-11-20T17:04:44.353Z,100547.19
2022-11-20T17:06:46.113Z,100551.44
2022-11-20T17:08:48.705Z,100549.75
2022-11-20T17:10:50.436Z,100553.19
2022-11-20T17:12:52.422Z,100553.34
2022-11-20T17:14:54.027Z,100556.88
2022-11-20T17:16:55.677Z,100560.38
2022-11-20T17:19:03.018Z,100568.06
2022-11-20T17:21:06.013Z,100566.41
2022-11-20T17:23:07.668Z,100568.25
2022-11-20T17:25:09.467Z,100574.31
2022-11-20T17:27:11.209Z,100567.44
2022-11-20T17:29:18.174Z,100574.31
2022-11-20T17:31:19.868Z,100574.31
2022-11-20T17:33:21.579Z,100570.72
2022-11-20T17:35:23.224Z,100582.84
2022-11-20T17:37:24.927Z,100573.41
2022-11-20T17:39:26.677Z,100573.38
2022-11-20T17:41:30.076Z,100572.53
2022-11-20T17:43:35.721Z,100575.97
2022-11-20T17:45:37.930Z,100587.03
2022-11-20T17:47:39.650Z,100590.56
2022-11-20T17:49:41.266Z,100606.00
2022-11-20T17:51:42.934Z,100599.00
2022-11-20T17:53:46.588Z,100609.28
2022-11-20T17:56:16.524Z,100602.31
2022-11-20T17:58:18.971Z,100616.03
2022-11-20T18:00:21.274Z,100616.84
2022-11-20T18:02:23.439Z,100621.09
2022-11-20T18:04:25.503Z,100625.44
2022-11-20T18:06:29.095Z,100628.00
2022-11-20T18:08:30.723Z,100630.47
2022-11-20T18:10:32.552Z,100633.09
2022-11-20T18:12:34.351Z,100629.59
2022-11-20T18:14:36.682Z,100628.56
2022-11-20T18:16:46.083Z,100620.91
2022-11-20T18:18:47.796Z,100624.34
2022-11-20T18:20:54.322Z,100626.06
2022-11-20T18:22:55.916Z,100629.41
2022-11-20T18:24:57.581Z,100623.31
2022-11-20T18:26:59.650Z,100636.16
2022-11-20T18:29:07.166Z,100623.59
2022-11-20T18:31:09.847Z,100628.19
2022-11-20T18:33:11.536Z,100635.88
2022-11-20T18:35:13.175Z,100639.31
2022-11-20T18:37:16.587Z,100640.19
2022-11-20T18:39:18.492Z,100638.31
2022-11-20T18:41:40.715Z,100637.63
2022-11-20T18:44:08.320Z,100641.84
2022-11-20T18:46:10.517Z,100642.69
2022-11-20T18:48:12.399Z,100644.22
2022-11-20T18:50:14.177Z,100639.88
2022-11-20T18:52:15.881Z,100649.16
2022-11-20T18:54:17.510Z,100646.41
2022-11-20T18:56:19.140Z,100657.66
2022-11-20T18:58:20.815Z,100649.00
2022-11-20T19:00:23.178Z,100655.50
2022-11-20T19:02:27.267Z,100647.13
2022-11-20T19:04:30.475Z,100659.03
2022-11-20T19:06:32.316Z,100653.91
2022-11-20T19:08:37.043Z,100655.72
2022-11-20T19:10:38.763Z,100660.81
2022-11-20T19:12:42.885Z,100665.09
2022-11-20T19:14:44.857Z,100659.00
2022-11-20T19:16:46.708Z,100658.19
2022-11-20T19:18:49.411Z,100665.91
2022-11-20T19:20:51.121Z,100665.97
2022-11-20T19:22:54.766Z,100663.34
2022-11-20T19:24:56.564Z,100663.41
2022-11-20T19:26:58.321Z,100655.47
2022-11-20T19:29:00.030Z,100669.28
2022-11-20T19:31:07.252Z,100670.09
2022-11-20T19:33:09.028Z,100668.38
2022-11-20T19:35:10.746Z,100665.63
2022-11-20T19:37:12.485Z,100674.03
2022-11-20T19:39:14.369Z,100669.06
2022-11-20T19:41:18.582Z,100672.50
2022-11-20T19:43:20.567Z,100676.84
2022-11-20T19:45:22.271Z,100689.75
2022-11-20T19:47:35.404Z,100686.25
2022-11-20T19:49:46.452Z,100689.66
2022-11-20T19:51:49.290Z,100692.25
2022-11-20T19:53:51.800Z,100698.22
2022-11-20T19:56:00.449Z,100699.94
2022-11-20T19:58:03.327Z,100702.50
2022-11-20T20:00:05.465Z,100701.63
2022-11-20T20:02:07.179Z,100709.22
2022-11-20T20:04:09.076Z,100709.13
2022-11-20T20:06:16.381Z,100706.66
2022-11-20T20:08:18.002Z,100699.81
2022-11-20T20:10:20.460Z,100705.84
2022-11-20T20:12:22.085Z,100706.66
2022-11-20T20:14:23.765Z,100698.09
2022-11-20T20:16:26.546Z,100699.56
2022-11-20T20:18:28.230Z,100702.91
2022-11-20T20:20:29.954Z,100705.34
2022-11-20T20:22:31.579Z,100712.31
2022-11-20T20:24:33.242Z,100710.41
2022-11-20T20:26:34.828Z,100721.22
2022-11-20T20:28:37.427Z,100713.31
2022-11-20T20:30:39.143Z,100718.66
2022-11-20T20:32:55.846Z,100727.88
2022-11-20T20:34:58.004Z,100725.28
2022-11-20T20:36:59.688Z,100724.88
2022-11-20T20:39:02.906Z,100733.81
2022-11-20T20:41:05.265Z,100731.81
2022-11-20T20:43:06.937Z,100736.00
2022-11-20T20:45:11.033Z,100732.69
2022-11-20T20:47:12.705Z,100730.00
2022-11-20T20:49:14.305Z,100735.81
2022-11-20T20:51:16.252Z,100737.53
2022-11-20T20:53:17.891Z,100739.88
2022-11-20T20:55:19.538Z,100739.78
2022-11-20T20:57:24.563Z,100732.31
2022-11-20T20:59:26.365Z,100735.59
2022-11-20T21:01:29.034Z,100735.59
2022-11-20T21:03:35.858Z,100741.44
2022-11-20T21:05:37.552Z,100741.06
2022-11-20T21:07:59.129Z,100741.53
2022-11-20T21:10:00.799Z,100747.50
2022-11-20T21:12:02.424Z,100756.31
2022-11-20T21:14:04.189Z,100756.19
2022-11-20T21:16:08.638Z,100764.47
2022-11-20T21:18:10.617Z,100760.69
2022-11-20T21:20:31.206Z,100763.56
2022-11-20T21:22:36.440Z,100766.06
2022-11-20T21:24:38.485Z,100753.28
2022-11-20T21:26:48.568Z,100754.13
2022-11-20T21:28:50.439Z,100745.69
2022-11-20T21:30:52.192Z,100741.47
2022-11-20T21:33:00.257Z,100742.75
2022-11-20T21:35:02.061Z,100733.38
2022-11-20T21:37:03.683Z,100725.81
2022-11-20T21:39:05.771Z,100720.75
2022-11-20T21:41:33.867Z,100717.53
2022-11-20T21:44:23.591Z,100716.13
2022-11-20T21:46:35.525Z,100718.38
2022-11-20T21:49:00.351Z,100715.06
2022-11-20T21:51:10.331Z,100712.41
2022-11-20T21:53:33.819Z,100716.69
2022-11-20T21:55:35.552Z,100717.09
2022-11-20T21:57:37.304Z,100712.19
2022-11-20T21:59:38.936Z,100713.09
2022-11-20T22:01:41.560Z,100717.53
2022-11-20T22:03:47.045Z,100706.34
2022-11-20T22:05:56.624Z,100696.94
2022-11-20T22:07:58.282Z,100699.31
2022-11-20T22:09:59.910Z,100699.31
2022-11-20T22:12:01.500Z,100693.19
2022-11-20T22:14:22.133Z,100696.59
2022-11-20T22:16:24.659Z,100707.00
2022-11-20T22:18:26.428Z,100699.28
2022-11-20T22:20:28.100Z,100707.09
2022-11-20T22:22:29.694Z,100701.88
2022-11-20T22:24:32.092Z,100691.66
2022-11-20T22:26:40.023Z,100687.41
2022-11-20T22:28:42.812Z,100680.53
2022-11-20T22:30:44.433Z,100681.53
2022-11-20T22:32:56.523Z,100680.53
2022-11-20T22:34:58.130Z,100668.56
2022-11-20T22:36:59.765Z,100665.94
2022-11-20T22:39:02.750Z,100654.81
2022-11-20T22:41:06.099Z,100655.00
2022-11-20T22:43:07.772Z,100663.44
2022-11-20T22:45:09.948Z,100659.31
2022-11-20T22:47:11.724Z,100647.75
2022-11-20T22:49:13.416Z,100640.94
2022-11-20T22:51:16.958Z,100647.84
2022-11-20T22:53:18.635Z,100642.69
2022-11-20T22:55:20.315Z,100642.66
2022-11-20T22:57:21.930Z,100637.53
2022-11-20T22:59:23.558Z,100640.25
2022-11-20T23:01:28.061Z,100640.09
2022-11-20T23:03:29.729Z,100650.94
2022-11-20T23:05:32.614Z,100665.66
2022-11-20T23:07:39.686Z,100674.06
2022-11-20T23:09:42.518Z,100683.47
2022-11-20T23:11:44.169Z,100676.97
2022-11-20T23:13:46.934Z,100676.19
2022-11-20T23:15:48.631Z,100685.47
2022-11-20T23:17:50.303Z,100682.91
2022-11-20T23:19:54.894Z,100682.19
2022-11-20T23:21:56.524Z,100671.59
2022-11-20T23:23:58.960Z,100678.34
2022-11-20T23:26:02.640Z,100674.22
2022-11-20T23:28:04.488Z,100670.88
2022-11-20T23:30:06.732Z,100676.88
2022-11-20T23:32:08.413Z,100679.38
2022-11-20T23:34:10.653Z,100674.00
2022-11-20T23:36:12.929Z,100670.56
2022-11-20T23:38:14.565Z,100665.66
2022-11-20T23:40:16.299Z,100659.47
2022-11-20T23:42:17.999Z,100658.31
2022-11-20T23:44:19.664Z,100648.25
2022-11-20T23:46:21.384Z,100651.59
2022-11-20T23:48:26.254Z,100645.84
2022-11-20T23:50:27.910Z,100635.91
2022-11-20T23:52:29.522Z,100633.13
2022-11-20T23:54:31.230Z,100636.84
2022-11-20T23:56:35.945Z,100634.03
2022-11-20T23:58:38.883Z,100629.09
